sensor_id;sensor_type;location;lat;lon;timestamp;pressure;altitude;pressure_sealevel;temperature;humidity
24486;BME280;13449;49.374;8.584;2023-11-21T00:00:01;100087.00;;;8.50;100.00
24486;BME280;13449;49.374;8.584;2023-11-21T00:02:28;100083.44;;;8.51;100.00
24486;BME280;13449;49.374;8.584;2023-11-21T00:04:54;100083.53;;;8.50;100.00
24486;BME280;13449;49.374;8.584;2023-11-21T00:07:23;100080.81;;;8.51;100.00
24486;BME280;13449;49.374;8.584;2023-11-21T00:09:49;100079.03;;;8.52;100.00
24486;BME280;13449;49.374;8.584;2023-11-21T00:12:16;100081.75;;;8.50;100.00
24486;BME280;13449;49.374;8.584;2023-11-21T00:14:43;100078.09;;;8.53;100.00
24486;BME280;13449;49.374;8.584;2023-11-21T00:17:09;100083.22;;;8.54;100.00
24486;BME280;13449;49.374;8.584;2023-11-21T00:19:41;100084.91;;;8.55;100.00
24486;BME280;13449;49.374;8.584;2023-11-21T00:22:11;100084.91;;;8.55;100.00
24486;BME280;13449;49.374;8.584;2023-11-21T00:24:40;100084.91;;;8.55;100.00
24486;BME280;13449;49.374;8.584;2023-11-21T00:27:07;100083.00;;;8.57;100.00
24486;BME280;13449;49.374;8.584;2023-11-21T00:29:33;100076.06;;;8.56;100.00
24486;BME280;13449;49.374;8.584;2023-11-21T00:32:00;100071.78;;;8.55;100.00
24486;BME280;13449;49.374;8.584;2023-11-21T00:34:27;100078.94;;;8.53;100.00
24486;BME280;13449;49.374;8.584;2023-11-21T00:36:58;100076.19;;;8.55;100.00
24486;BME280;13449;49.374;8.584;2023-11-21T00:39:25;100072.00;;;8.52;100.00
24486;BME280;13449;49.374;8.584;2023-11-21T00:41:52;100066.00;;;8.50;100.00
24486;BME280;13449;49.374;8.584;2023-11-21T00:44:19;100055.75;;;8.47;100.00
24486;BME280;13449;49.374;8.584;2023-11-21T00:46:45;100055.97;;;8.44;100.00
24486;BME280;13449;49.374;8.584;2023-11-21T00:49:12;100061.47;;;8.41;100.00
24486;BME280;13449;49.374;8.584;2023-11-21T00:51:39;100061.47;;;8.41;100.00
24486;BME280;13449;49.374;8.584;2023-11-21T00:54:06;100059.78;;;8.40;100.00
24486;BME280;13449;49.374;8.584;2023-11-21T00:56:33;100055.38;;;8.40;100.00
24486;BME280;13449;49.374;8.584;2023-11-21T00:59:00;100055.25;;;8.42;100.00
24486;BME280;13449;49.374;8.584;2023-11-21T01:01:26;100056.94;;;8.43;100.00
24486;BME280;13449;49.374;8.584;2023-11-21T01:03:53;100051.56;;;8.45;100.00
24486;BME280;13449;49.374;8.584;2023-11-21T01:06:20;100054.31;;;8.43;100.00
24486;BME280;13449;49.374;8.584;2023-11-21T01:08:46;100058.59;;;8.44;100.00
24486;BME280;13449;49.374;8.584;2023-11-21T01:11:13;100065.53;;;8.45;100.00
24486;BME280;13449;49.374;8.584;2023-11-21T01:13:40;100059.31;;;8.46;100.00
24486;BME280;13449;49.374;8.584;2023-11-21T01:16:07;100066.34;;;8.46;100.00
24486;BME280;13449;49.374;8.584;2023-11-21T01:18:37;100067.91;;;8.48;100.00
24486;BME280;13449;49.374;8.584;2023-11-21T01:21:04;100068.75;;;8.49;100.00
24486;BME280;13449;49.374;8.584;2023-11-21T01:23:30;100066.84;;;8.51;100.00
24486;BME280;13449;49.374;8.584;2023-11-21T01:25:57;100070.41;;;8.50;100.00
24486;BME280;13449;49.374;8.584;2023-11-21T01:28:23;100060.75;;;8.50;100.00
24486;BME280;13449;49.374;8.584;2023-11-21T01:30:50;100065.88;;;8.52;100.00
24486;BME280;13449;49.374;8.584;2023-11-21T01:33:17;100064.34;;;8.49;100.00
24486;BME280;13449;49.374;8.584;2023-11-21T01:35:46;100064.22;;;8.51;100.00
24486;BME280;13449;49.374;8.584;2023-11-21T01:38:13;100062.66;;;8.48;100.00
24486;BME280;13449;49.374;8.584;2023-11-21T01:40:40;100057.41;;;8.48;100.00
24486;BME280;13449;49.374;8.584;2023-11-21T01:43:06;100065.16;;;8.50;100.00
24486;BME280;13449;49.374;8.584;2023-11-21T01:45:34;100060.75;;;8.50;100.00
24486;BME280;13449;49.374;8.584;2023-11-21T01:48:03;100064.22;;;8.51;100.00
24486;BME280;13449;49.374;8.584;2023-11-21T01:50:30;100065.81;;;8.53;100.00
24486;BME280;13449;49.374;8.584;2023-11-21T01:52:57;100064.13;;;8.52;100.00
24486;BME280;13449;49.374;8.584;2023-11-21T01:55:24;100059.59;;;8.54;100.00
24486;BME280;13449;49.374;8.584;2023-11-21T01:57:54;100061.38;;;8.54;100.00
24486;BME280;13449;49.374;8.584;2023-11-21T02:00:22;100065.81;;;8.53;100.00
24486;BME280;13449;49.374;8.584;2023-11-21T02:02:50;100060.56;;;8.53;100.00
24486;BME280;13449;49.374;8.584;2023-11-21T02:05:19;100060.56;;;8.53;100.00
24486;BME280;13449;49.374;8.584;2023-11-21T02:07:47;100053.63;;;8.52;100.00
24486;BME280;13449;49.374;8.584;2023-11-21T02:10:15;100050.25;;;8.50;100.00
24486;BME280;13449;49.374;8.584;2023-11-21T02:12:49;100047.75;;;8.49;100.00
24486;BME280;13449;49.374;8.584;2023-11-21T02:15:19;100043.34;;;8.49;100.00
24486;BME280;13449;49.374;8.584;2023-11-21T02:17:50;100053.84;;;8.49;100.00
24486;BME280;13449;49.374;8.584;2023-11-21T02:20:21;100053.84;;;8.49;100.00
24486;BME280;13449;49.374;8.584;2023-11-21T02:22:53;100046.69;;;8.51;100.00
24486;BME280;13449;49.374;8.584;2023-11-21T02:25:28;100047.50;;;8.52;100.00
24486;BME280;13449;49.374;8.584;2023-11-21T02:27:56;100053.63;;;8.52;100.00
24486;BME280;13449;49.374;8.584;2023-11-21T02:30:25;100053.63;;;8.52;100.00
24486;BME280;13449;49.374;8.584;2023-11-21T02:32:52;100060.56;;;8.53;100.00
24486;BME280;13449;49.374;8.584;2023-11-21T02:35:24;100055.31;;;8.53;100.00
24486;BME280;13449;49.374;8.584;2023-11-21T02:37:54;100054.34;;;8.54;100.00
24486;BME280;13449;49.374;8.584;2023-11-21T02:40:21;100053.41;;;8.55;100.00
24486;BME280;13449;49.374;8.584;2023-11-21T02:42:48;100054.34;;;8.54;100.00
24486;BME280;13449;49.374;8.584;2023-11-21T02:45:18;100049.81;;;8.56;100.00
24486;BME280;13449;49.374;8.584;2023-11-21T02:47:44;100052.31;;;8.58;100.00
24486;BME280;13449;49.374;8.584;2023-11-21T02:50:11;100050.66;;;8.57;100.00
24486;BME280;13449;49.374;8.584;2023-11-21T02:52:38;100048.88;;;8.57;100.00
24486;BME280;13449;49.374;8.584;2023-11-21T02:55:06;100049.81;;;8.56;100.00
24486;BME280;13449;49.374;8.584;2023-11-21T02:57:35;100050.66;;;8.57;100.00
24486;BME280;13449;49.374;8.584;2023-11-21T03:00:02;100046.25;;;8.57;100.00
24486;BME280;13449;49.374;8.584;2023-11-21T03:02:29;100052.31;;;8.58;100.00
24486;BME280;13449;49.374;8.584;2023-11-21T03:04:56;100048.88;;;8.57;100.00
24486;BME280;13449;49.374;8.584;2023-11-21T03:07:24;100040.16;;;8.57;100.00
24486;BME280;13449;49.374;8.584;2023-11-21T03:09:51;100040.28;;;8.55;100.00
24486;BME280;13449;49.374;8.584;2023-11-21T03:12:18;100047.31;;;8.55;100.00
24486;BME280;13449;49.374;8.584;2023-11-21T03:14:45;100035.03;;;8.55;100.00
24486;BME280;13449;49.374;8.584;2023-11-21T03:17:12;100039.31;;;8.56;100.00
24486;BME280;13449;49.374;8.584;2023-11-21T03:19:38;100041.94;;;8.56;100.00
24486;BME280;13449;49.374;8.584;2023-11-21T03:22:05;100036.69;;;8.56;100.00
24486;BME280;13449;49.374;8.584;2023-11-21T03:24:33;100040.03;;;8.58;100.00
24486;BME280;13449;49.374;8.584;2023-11-21T03:27:00;100041.81;;;8.58;100.00
24486;BME280;13449;49.374;8.584;2023-11-21T03:29:26;100041.00;;;8.57;100.00
24486;BME280;13449;49.374;8.584;2023-11-21T03:31:53;100041.94;;;8.56;100.00
24486;BME280;13449;49.374;8.584;2023-11-21T03:34:26;100037.41;;;8.58;100.00
24486;BME280;13449;49.374;8.584;2023-11-21T03:36:54;100047.91;;;8.58;100.00
24486;BME280;13449;49.374;8.584;2023-11-21T03:39:20;100041.00;;;8.57;100.00
24486;BME280;13449;49.374;8.584;2023-11-21T03:41:47;100046.25;;;8.57;100.00
24486;BME280;13449;49.374;8.584;2023-11-21T03:44:19;100036.56;;;8.58;100.00
24486;BME280;13449;49.374;8.584;2023-11-21T03:46:51;100047.91;;;8.58;100.00
24486;BME280;13449;49.374;8.584;2023-11-21T03:49:17;100042.66;;;8.58;100.00
24486;BME280;13449;49.374;8.584;2023-11-21T03:51:46;100048.88;;;8.57;100.00
24486;BME280;13449;49.374;8.584;2023-11-21T03:54:15;100050.53;;;8.58;100.00
24486;BME280;13449;49.374;8.584;2023-11-21T03:56:41;100052.31;;;8.58;100.00
24486;BME280;13449;49.374;8.584;2023-11-21T03:59:08;100046.97;;;8.59;100.00
24486;BME280;13449;49.374;8.584;2023-11-21T04:01:34;100053.03;;;8.60;100.00
24486;BME280;13449;49.374;8.584;2023-11-21T04:04:01;100054.84;;;8.59;100.00
24486;BME280;13449;49.374;8.584;2023-11-21T04:06:27;100057.47;;;8.59;100.00
24486;BME280;13449;49.374;8.584;2023-11-21T04:08:54;100059.25;;;8.59;100.00
24486;BME280;13449;49.374;8.584;2023-11-21T04:11:23;100053.03;;;8.60;100.00
24486;BME280;13449;49.374;8.584;2023-11-21T04:13:49;100049.59;;;8.59;100.00
24486;BME280;13449;49.374;8.584;2023-11-21T04:16:16;100059.13;;;8.60;100.00
24486;BME280;13449;49.374;8.584;2023-11-21T04:18:43;100060.09;;;8.59;100.00
24486;BME280;13449;49.374;8.584;2023-11-21T04:21:09;100064.50;;;8.59;100.00
24486;BME280;13449;49.374;8.584;2023-11-21T04:23:36;100066.28;;;8.58;100.00
24486;BME280;13449;49.374;8.584;2023-11-21T04:26:08;100068.09;;;8.58;100.00
24486;BME280;13449;49.374;8.584;2023-11-21T04:28:34;100068.91;;;8.58;100.00
24486;BME280;13449;49.374;8.584;2023-11-21T04:31:01;100071.53;;;8.58;100.00
24486;BME280;13449;49.374;8.584;2023-11-21T04:33:28;100069.75;;;8.59;100.00
24486;BME280;13449;49.374;8.584;2023-11-21T04:35:55;100071.41;;;8.60;100.00
24486;BME280;13449;49.374;8.584;2023-11-21T04:38:24;100076.56;;;8.61;100.00
24486;BME280;13449;49.374;8.584;2023-11-21T04:40:52;100074.06;;;8.60;100.00
24486;BME280;13449;49.374;8.584;2023-11-21T04:43:19;100074.06;;;8.60;100.00
24486;BME280;13449;49.374;8.584;2023-11-21T04:45:45;100074.06;;;8.60;100.00
24486;BME280;13449;49.374;8.584;2023-11-21T04:48:14;100081.81;;;8.61;100.00
24486;BME280;13449;49.374;8.584;2023-11-21T04:50:43;100083.47;;;8.62;100.00
24486;BME280;13449;49.374;8.584;2023-11-21T04:53:10;100076.56;;;8.61;100.00
24486;BME280;13449;49.374;8.584;2023-11-21T04:55:39;100086.09;;;8.62;100.00
24486;BME280;13449;49.374;8.584;2023-11-21T04:58:06;100083.47;;;8.62;100.00
24486;BME280;13449;49.374;8.584;2023-11-21T05:00:35;100090.41;;;8.63;100.00
24486;BME280;13449;49.374;8.584;2023-11-21T05:03:03;100088.72;;;8.62;100.00
24486;BME280;13449;49.374;8.584;2023-11-21T05:05:31;100091.47;;;8.61;100.00
24486;BME280;13449;49.374;8.584;2023-11-21T05:07:57;100096.59;;;8.62;100.00
24486;BME280;13449;49.374;8.584;2023-11-21T05:10:27;100089.69;;;8.61;100.00
24486;BME280;13449;49.374;8.584;2023-11-21T05:12:53;100098.28;;;8.63;100.00
24486;BME280;13449;49.374;8.584;2023-11-21T05:15:22;100086.09;;;8.62;100.00
24486;BME280;13449;49.374;8.584;2023-11-21T05:17:51;100091.34;;;8.62;100.00
24486;BME280;13449;49.374;8.584;2023-11-21T05:20:19;100103.53;;;8.63;100.00
24486;BME280;13449;49.374;8.584;2023-11-21T05:22:55;100096.72;;;8.61;100.00
24486;BME280;13449;49.374;8.584;2023-11-21T05:25:21;100102.81;;;8.61;100.00
24486;BME280;13449;49.374;8.584;2023-11-21T05:27:50;100105.44;;;8.61;100.00
24486;BME280;13449;49.374;8.584;2023-11-21T05:30:17;100111.63;;;8.60;100.00
24486;BME280;13449;49.374;8.584;2023-11-21T05:32:45;100112.34;;;8.62;100.00
24486;BME280;13449;49.374;8.584;2023-11-21T05:35:13;100120.25;;;8.62;100.00
24486;BME280;13449;49.374;8.584;2023-11-21T05:37:43;100128.00;;;8.64;100.00
24486;BME280;13449;49.374;8.584;2023-11-21T05:40:10;100124.53;;;8.63;100.00
24486;BME280;13449;49.374;8.584;2023-11-21T05:42:39;100138.38;;;8.65;100.00
24486;BME280;13449;49.374;8.584;2023-11-21T05:45:06;100128.84;;;8.64;100.00
24486;BME280;13449;49.374;8.584;2023-11-21T05:47:46;100139.34;;;8.64;100.00
24486;BME280;13449;49.374;8.584;2023-11-21T05:50:15;100133.25;;;8.64;100.00
24486;BME280;13449;49.374;8.584;2023-11-21T05:52:47;100134.09;;;8.64;100.00
24486;BME280;13449;49.374;8.584;2023-11-21T05:55:16;100141.97;;;8.64;100.00
24486;BME280;13449;49.374;8.584;2023-11-21T05:57:43;100138.50;;;8.64;100.00
24486;BME280;13449;49.374;8.584;2023-11-21T06:00:12;100133.38;;;8.62;100.00
24486;BME280;13449;49.374;8.584;2023-11-21T06:02:52;100153.31;;;8.65;100.00
24486;BME280;13449;49.374;8.584;2023-11-21T06:05:23;100152.47;;;8.64;100.00
24486;BME280;13449;49.374;8.584;2023-11-21T06:07:55;100157.72;;;8.64;100.00
24486;BME280;13449;49.374;8.584;2023-11-21T06:10:25;100159.38;;;8.65;100.00
24486;BME280;13449;49.374;8.584;2023-11-21T06:12:52;100156.03;;;8.63;100.00
24486;BME280;13449;49.374;8.584;2023-11-21T06:15:21;100159.50;;;8.64;100.00
24486;BME280;13449;49.374;8.584;2023-11-21T06:17:50;100162.13;;;8.64;100.00
24486;BME280;13449;49.374;8.584;2023-11-21T06:20:22;100164.63;;;8.65;100.00
24486;BME280;13449;49.374;8.584;2023-11-21T06:22:50;100162.97;;;8.64;100.00
24486;BME280;13449;49.374;8.584;2023-11-21T06:25:19;100169.91;;;8.65;100.00
24486;BME280;13449;49.374;8.584;2023-11-21T06:27:47;100175.13;;;8.65;100.00
24486;BME280;13449;49.374;8.584;2023-11-21T06:30:17;100173.47;;;8.64;100.00
24486;BME280;13449;49.374;8.584;2023-11-21T06:32:46;100173.47;;;8.64;100.00
24486;BME280;13449;49.374;8.584;2023-11-21T06:35:14;100174.41;;;8.63;100.00
24486;BME280;13449;49.374;8.584;2023-11-21T06:37:45;100173.59;;;8.63;100.00
24486;BME280;13449;49.374;8.584;2023-11-21T06:40:15;100183.97;;;8.64;100.00
24486;BME280;13449;49.374;8.584;2023-11-21T06:42:42;100190.69;;;8.68;100.00
24486;BME280;13449;49.374;8.584;2023-11-21T06:45:12;100192.56;;;8.66;100.00
24486;BME280;13449;49.374;8.584;2023-11-21T06:47:42;100192.56;;;8.66;100.00
24486;BME280;13449;49.374;8.584;2023-11-21T06:50:09;100195.13;;;8.68;100.00
24486;BME280;13449;49.374;8.584;2023-11-21T06:52:37;100197.75;;;8.68;100.00
24486;BME280;13449;49.374;8.584;2023-11-21T06:55:08;100198.47;;;8.70;100.00
24486;BME280;13449;49.374;8.584;2023-11-21T06:57:35;100201.91;;;8.70;100.00
24486;BME280;13449;49.374;8.584;2023-11-21T07:00:02;100206.22;;;8.72;100.00
24486;BME280;13449;49.374;8.584;2023-11-21T07:02:31;100208.84;;;8.72;100.00
24486;BME280;13449;49.374;8.584;2023-11-21T07:05:00;100210.63;;;8.71;100.00
24486;BME280;13449;49.374;8.584;2023-11-21T07:07:27;100215.78;;;8.73;100.00
24486;BME280;13449;49.374;8.584;2023-11-21T07:09:56;100213.03;;;8.74;100.00
24486;BME280;13449;49.374;8.584;2023-11-21T07:12:23;100216.50;;;8.75;100.00
24486;BME280;13449;49.374;8.584;2023-11-21T07:14:52;100219.13;;;8.75;100.00
24486;BME280;13449;49.374;8.584;2023-11-21T07:17:18;100219.13;;;8.75;100.00
24486;BME280;13449;49.374;8.584;2023-11-21T07:19:45;100232.38;;;8.73;100.00
24486;BME280;13449;49.374;8.584;2023-11-21T07:22:11;100233.31;;;8.72;100.00
24486;BME280;13449;49.374;8.584;2023-11-21T07:24:40;100241.09;;;8.74;100.00
24486;BME280;13449;49.374;8.584;2023-11-21T07:27:07;100243.59;;;8.75;100.00
24486;BME280;13449;49.374;8.584;2023-11-21T07:29:35;100249.47;;;8.79;100.00
24486;BME280;13449;49.374;8.584;2023-11-21T07:32:02;100249.47;;;8.79;100.00
24486;BME280;13449;49.374;8.584;2023-11-21T07:34:28;100254.47;;;8.82;100.00
24486;BME280;13449;49.374;8.584;2023-11-21T07:36:55;100257.88;;;8.84;100.00
24486;BME280;13449;49.374;8.584;2023-11-21T07:39:24;100258.69;;;8.84;100.00
24486;BME280;13449;49.374;8.584;2023-11-21T07:41:50;100259.53;;;8.85;100.00
24486;BME280;13449;49.374;8.584;2023-11-21T07:44:17;100262.88;;;8.87;100.00
24486;BME280;13449;49.374;8.584;2023-11-21T07:46:47;100261.94;;;8.88;100.00
24486;BME280;13449;49.374;8.584;2023-11-21T07:49:13;100266.13;;;8.90;100.00
24486;BME280;13449;49.374;8.584;2023-11-21T07:51:43;100266.97;;;8.91;100.00
24486;BME280;13449;49.374;8.584;2023-11-21T07:54:10;100271.25;;;8.92;100.00
24486;BME280;13449;49.374;8.584;2023-11-21T07:56:36;100274.63;;;8.94;100.00
24486;BME280;13449;49.374;8.584;2023-11-21T07:59:03;100285.97;;;8.94;100.00
24486;BME280;13449;49.374;8.584;2023-11-21T08:01:29;100278.91;;;8.95;100.00
24486;BME280;13449;49.374;8.584;2023-11-21T08:03:56;100282.16;;;8.98;100.00
24486;BME280;13449;49.374;8.584;2023-11-21T08:06:28;100283.84;;;8.99;100.00
24486;BME280;13449;49.374;8.584;2023-11-21T08:08:54;100288.25;;;8.99;100.00
24486;BME280;13449;49.374;8.584;2023-11-21T08:11:21;100282.78;;;9.02;100.00
24486;BME280;13449;49.374;8.584;2023-11-21T08:13:48;100274.78;;;9.04;100.00
24486;BME280;13449;49.374;8.584;2023-11-21T08:16:15;100283.94;;;8.98;100.00
24486;BME280;13449;49.374;8.584;2023-11-21T08:18:46;100277.72;;;8.99;100.00
24486;BME280;13449;49.374;8.584;2023-11-21T08:21:15;100287.22;;;9.02;100.00
24486;BME280;13449;49.374;8.584;2023-11-21T08:23:45;100298.56;;;9.02;100.00
24486;BME280;13449;49.374;8.584;2023-11-21T08:26:12;100293.91;;;9.06;100.00
24486;BME280;13449;49.374;8.584;2023-11-21T08:28:39;100298.31;;;9.05;100.00
24486;BME280;13449;49.374;8.584;2023-11-21T08:31:09;100308.38;;;9.11;100.00
24486;BME280;13449;49.374;8.584;2023-11-21T08:33:40;100315.09;;;9.15;100.00
24486;BME280;13449;49.374;8.584;2023-11-21T08:36:10;100320.63;;;9.23;100.00
24486;BME280;13449;49.374;8.584;2023-11-21T08:38:38;100325.88;;;9.23;100.00
24486;BME280;13449;49.374;8.584;2023-11-21T08:41:12;100325.16;;;9.21;100.00
24486;BME280;13449;49.374;8.584;2023-11-21T08:43:41;100333.53;;;9.26;100.00
24486;BME280;13449;49.374;8.584;2023-11-21T08:46:08;100337.13;;;9.25;100.00
24486;BME280;13449;49.374;8.584;2023-11-21T08:48:36;100334.97;;;9.30;100.00
24486;BME280;13449;49.374;8.584;2023-11-21T08:51:03;100335.94;;;9.29;100.00
24486;BME280;13449;49.374;8.584;2023-11-21T08:53:30;100343.81;;;9.29;100.00
24486;BME280;13449;49.374;8.584;2023-11-21T08:55:59;100346.38;;;9.31;100.00
24486;BME280;13449;49.374;8.584;2023-11-21T08:58:26;100345.28;;;9.34;100.00
24486;BME280;13449;49.374;8.584;2023-11-21T09:00:53;100346.03;;;9.36;100.00
24486;BME280;13449;49.374;8.584;2023-11-21T09:03:20;100349.13;;;9.41;100.00
24486;BME280;13449;49.374;8.584;2023-11-21T09:05:46;100350.47;;;9.46;100.00
24486;BME280;13449;49.374;8.584;2023-11-21T09:08:13;100351.94;;;9.50;100.00
24486;BME280;13449;49.374;8.584;2023-11-21T09:10:39;100360.97;;;9.46;100.00
24486;BME280;13449;49.374;8.584;2023-11-21T09:13:11;100357.56;;;9.57;100.00
24486;BME280;13449;49.374;8.584;2023-11-21T09:15:38;100367.59;;;9.52;100.00
24486;BME280;13449;49.374;8.584;2023-11-21T09:18:05;100361.16;;;9.56;100.00
24486;BME280;13449;49.374;8.584;2023-11-21T09:20:31;100366.19;;;9.59;100.00
24486;BME280;13449;49.374;8.584;2023-11-21T09:23:00;100376.94;;;9.56;100.00
24486;BME280;13449;49.374;8.584;2023-11-21T09:25:27;100371.72;;;9.67;100.00
24486;BME280;13449;49.374;8.584;2023-11-21T09:27:55;100381.06;;;9.71;100.00
24486;BME280;13449;49.374;8.584;2023-11-21T09:30:23;100383.97;;;9.79;100.00
24486;BME280;13449;49.374;8.584;2023-11-21T09:32:51;100387.88;;;9.74;100.00
24486;BME280;13449;49.374;8.584;2023-11-21T09:35:17;100384.66;;;9.70;100.00
24486;BME280;13449;49.374;8.584;2023-11-21T09:37:46;100402.59;;;9.76;100.00
24486;BME280;13449;49.374;8.584;2023-11-21T09:40:22;100405.97;;;9.78;100.00
24486;BME280;13449;49.374;8.584;2023-11-21T09:42:54;100408.13;;;9.84;100.00
24486;BME280;13449;49.374;8.584;2023-11-21T09:45:24;100409.34;;;9.91;100.00
24486;BME280;13449;49.374;8.584;2023-11-21T09:47:55;100415.78;;;9.87;100.00
24486;BME280;13449;49.374;8.584;2023-11-21T09:50:23;100424.28;;;9.80;100.00
24486;BME280;13449;49.374;8.584;2023-11-21T09:53:10;100425.06;;;9.69;100.00
24486;BME280;13449;49.374;8.584;2023-11-21T09:55:43;100425.28;;;9.66;100.00
24486;BME280;13449;49.374;8.584;2023-11-21T09:58:10;100424.22;;;9.69;100.00
24486;BME280;13449;49.374;8.584;2023-11-21T10:00:41;100430.69;;;9.76;100.00
24486;BME280;13449;49.374;8.584;2023-11-21T10:03:09;100437.84;;;9.74;100.00
24486;BME280;13449;49.374;8.584;2023-11-21T10:05:40;100443.47;;;9.69;100.00
24486;BME280;13449;49.374;8.584;2023-11-21T10:08:10;100442.75;;;9.67;100.00
24486;BME280;13449;49.374;8.584;2023-11-21T10:10:38;100448.50;;;9.72;100.00
24486;BME280;13449;49.374;8.584;2023-11-21T10:13:09;100446.31;;;9.66;100.00
24486;BME280;13449;49.374;8.584;2023-11-21T10:15:36;100457.50;;;9.57;100.00
24486;BME280;13449;49.374;8.584;2023-11-21T10:18:05;100453.81;;;9.59;100.00
24486;BME280;13449;49.374;8.584;2023-11-21T10:20:33;100462.34;;;9.63;100.00
24486;BME280;13449;49.374;8.584;2023-11-21T10:23:00;100457.69;;;9.67;100.00
24486;BME280;13449;49.374;8.584;2023-11-21T10:25:30;100455.59;;;9.59;100.00
24486;BME280;13449;49.374;8.584;2023-11-21T10:28:02;100458.94;;;9.61;100.00
24486;BME280;13449;49.374;8.584;2023-11-21T10:30:35;100463.78;;;9.67;100.00
24486;BME280;13449;49.374;8.584;2023-11-21T10:33:04;100460.84;;;9.59;100.00
24486;BME280;13449;49.374;8.584;2023-11-21T10:35:47;100462.22;;;9.65;100.00
24486;BME280;13449;49.374;8.584;2023-11-21T10:38:17;100462.09;;;9.66;100.00
24486;BME280;13449;49.374;8.584;2023-11-21T10:40:44;100467.69;;;9.61;100.00
24486;BME280;13449;49.374;8.584;2023-11-21T10:43:13;100463.38;;;9.60;100.00
24486;BME280;13449;49.374;8.584;2023-11-21T10:45:42;100467.63;;;9.74;100.00
24486;BME280;13449;49.374;8.584;2023-11-21T10:48:13;100484.13;;;9.76;100.00
24486;BME280;13449;49.374;8.584;2023-11-21T10:50:46;100480.78;;;9.74;100.00
24486;BME280;13449;49.374;8.584;2023-11-21T10:53:12;100490.03;;;9.80;100.00
24486;BME280;13449;49.374;8.584;2023-11-21T10:55:40;100493.78;;;9.88;100.00
24486;BME280;13449;49.374;8.584;2023-11-21T10:58:07;100493.78;;;9.88;100.00
24486;BME280;13449;49.374;8.584;2023-11-21T11:00:37;100502.84;;;9.84;100.00
24486;BME280;13449;49.374;8.584;2023-11-21T11:03:06;100491.97;;;9.89;100.00
24486;BME280;13449;49.374;8.584;2023-11-21T11:05:40;100504.06;;;9.91;100.00
24486;BME280;13449;49.374;8.584;2023-11-21T11:08:08;100508.44;;;10.04;100.00
24486;BME280;13449;49.374;8.584;2023-11-21T11:10:37;100511.56;;;10.09;100.00
24486;BME280;13449;49.374;8.584;2023-11-21T11:13:07;100515.91;;;10.10;100.00
24486;BME280;13449;49.374;8.584;2023-11-21T11:15:33;100514.47;;;10.17;100.00
24486;BME280;13449;49.374;8.584;2023-11-21T11:18:02;100518.53;;;10.10;100.00
24486;BME280;13449;49.374;8.584;2023-11-21T11:20:34;100514.41;;;10.06;100.00
24486;BME280;13449;49.374;8.584;2023-11-21T11:34:34;100535.72;;;10.03;100.00
24486;BME280;13449;49.374;8.584;2023-11-21T11:37:05;100540.97;;;10.03;100.00
24486;BME280;13449;49.374;8.584;2023-11-21T11:39:38;100551.00;;;9.98;100.00
24486;BME280;13449;49.374;8.584;2023-11-21T11:42:12;100552.44;;;10.02;100.00
24486;BME280;13449;49.374;8.584;2023-11-21T11:47:13;100549.94;;;10.00;100.00
24486;BME280;13449;49.374;8.584;2023-11-21T11:49:59;100550.13;;;10.10;100.00
24486;BME280;13449;49.374;8.584;2023-11-21T11:52:36;100546.53;;;10.11;100.00
24486;BME280;13449;49.374;8.584;2023-11-21T11:55:06;100550.31;;;10.07;100.00
24486;BME280;13449;49.374;8.584;2023-11-21T11:57:34;100555.16;;;10.13;100.00
24486;BME280;13449;49.374;8.584;2023-11-21T12:02:38;100556.09;;;10.12;100.00
24486;BME280;13449;49.374;8.584;2023-11-21T12:05:13;100570.09;;;10.12;100.00
24486;BME280;13449;49.374;8.584;2023-11-21T12:07:48;100571.91;;;10.12;100.00
24486;BME280;13449;49.374;8.584;2023-11-21T12:10:16;100579.38;;;10.05;100.00
24486;BME280;13449;49.374;8.584;2023-11-21T12:12:49;100579.91;;;10.10;100.00
24486;BME280;13449;49.374;8.584;2023-11-21T12:15:16;100589.03;;;10.17;100.00
24486;BME280;13449;49.374;8.584;2023-11-21T12:17:43;100587.56;;;10.26;100.00
24486;BME280;13449;49.374;8.584;2023-11-21T12:20:14;100597.63;;;10.32;100.00
24486;BME280;13449;49.374;8.584;2023-11-21T12:22:43;100589.44;;;10.24;100.00
24486;BME280;13449;49.374;8.584;2023-11-21T12:25:10;100595.44;;;10.26;100.00
24486;BME280;13449;49.374;8.584;2023-11-21T12:27:43;100595.66;;;10.23;100.00
24486;BME280;13449;49.374;8.584;2023-11-21T12:30:12;100600.28;;;10.19;100.00
24486;BME280;13449;49.374;8.584;2023-11-21T12:32:47;100602.81;;;10.21;100.00
24486;BME280;13449;49.374;8.584;2023-11-21T12:35:14;100602.41;;;10.27;100.00
24486;BME280;13449;49.374;8.584;2023-11-21T12:37:42;100606.25;;;10.34;100.00
24486;BME280;13449;49.374;8.584;2023-11-21T12:40:11;100609.00;;;10.33;100.00
24486;BME280;13449;49.374;8.584;2023-11-21T12:42:42;100610.50;;;10.24;100.00
24486;BME280;13449;49.374;8.584;2023-11-21T12:45:19;100613.13;;;10.24;100.00
24486;BME280;13449;49.374;8.584;2023-11-21T12:47:50;100625.44;;;10.24;100.00
24486;BME280;13449;49.374;8.584;2023-11-21T12:50:21;100633.06;;;10.39;100.00
24486;BME280;13449;49.374;8.584;2023-11-21T12:52:51;100635.28;;;10.45;100.00
24486;BME280;13449;49.374;8.584;2023-11-21T12:55:23;100643.44;;;10.54;100.00
24486;BME280;13449;49.374;8.584;2023-11-21T12:57:54;100652.34;;;10.64;100.00
24486;BME280;13449;49.374;8.584;2023-11-21T13:00:33;100655.09;;;10.62;100.00
24486;BME280;13449;49.374;8.584;2023-11-21T13:03:06;100654.50;;;10.59;100.00
24486;BME280;13449;49.374;8.584;2023-11-21T13:05:35;100656.97;;;10.49;100.00
24486;BME280;13449;49.374;8.584;2023-11-21T13:08:06;100664.97;;;10.47;100.00
24486;BME280;13449;49.374;8.584;2023-11-21T13:10:40;100660.53;;;10.48;100.00